sensor_id;sensor_type;location;lat;lon;timestamp;P1;durP1;ratioP1;P2;durP2;ratioP2
11653;SDS011;5883;48.818;9.114;2022-08-07T00:02:05;2.25;;;1.52;;
11653;SDS011;5883;48.818;9.114;2022-08-07T00:04:31;3.08;;;1.75;;
11653;SDS011;5883;48.818;9.114;2022-08-07T00:06:58;3.47;;;1.65;;
11653;SDS011;5883;48.818;9.114;2022-08-07T00:09:24;3.72;;;2.22;;
11653;SDS011;5883;48.818;9.114;2022-08-07T00:11:51;3.75;;;2.00;;
11653;SDS011;5883;48.818;9.114;2022-08-07T00:14:17;4.25;;;2.17;;
11653;SDS011;5883;48.818;9.114;2022-08-07T00:16:43;3.30;;;2.00;;
11653;SDS011;5883;48.818;9.114;2022-08-07T00:19:11;1.60;;;1.48;;
11653;SDS011;5883;48.818;9.114;2022-08-07T00:21:38;3.25;;;1.92;;
11653;SDS011;5883;48.818;9.114;2022-08-07T00:24:04;3.88;;;1.90;;
11653;SDS011;5883;48.818;9.114;2022-08-07T00:26:31;2.65;;;1.90;;
11653;SDS011;5883;48.818;9.114;2022-08-07T00:28:57;2.22;;;1.80;;
11653;SDS011;5883;48.818;9.114;2022-08-07T00:31:24;5.10;;;2.00;;
11653;SDS011;5883;48.818;9.114;2022-08-07T00:33:51;3.95;;;2.38;;
11653;SDS011;5883;48.818;9.114;2022-08-07T00:36:19;4.13;;;2.20;;
11653;SDS011;5883;48.818;9.114;2022-08-07T00:38:45;6.40;;;1.95;;
11653;SDS011;5883;48.818;9.114;2022-08-07T00:41:12;3.13;;;2.00;;
11653;SDS011;5883;48.818;9.114;2022-08-07T00:43:38;3.45;;;2.22;;
11653;SDS011;5883;48.818;9.114;2022-08-07T00:46:05;2.90;;;1.67;;
11653;SDS011;5883;48.818;9.114;2022-08-07T00:48:31;4.18;;;1.92;;
11653;SDS011;5883;48.818;9.114;2022-08-07T00:50:58;2.63;;;1.98;;
11653;SDS011;5883;48.818;9.114;2022-08-07T00:53:26;5.38;;;2.55;;
11653;SDS011;5883;48.818;9.114;2022-08-07T00:55:52;3.38;;;2.08;;
11653;SDS011;5883;48.818;9.114;2022-08-07T00:58:19;2.83;;;1.90;;
11653;SDS011;5883;48.818;9.114;2022-08-07T01:00:46;2.83;;;1.65;;
11653;SDS011;5883;48.818;9.114;2022-08-07T01:03:13;3.05;;;2.10;;
11653;SDS011;5883;48.818;9.114;2022-08-07T01:05:39;2.13;;;1.83;;
11653;SDS011;5883;48.818;9.114;2022-08-07T01:08:07;4.03;;;2.10;;
11653;SDS011;5883;48.818;9.114;2022-08-07T01:10:35;3.78;;;2.20;;
11653;SDS011;5883;48.818;9.114;2022-08-07T01:13:03;6.38;;;1.90;;
11653;SDS011;5883;48.818;9.114;2022-08-07T01:15:29;3.38;;;2.03;;
11653;SDS011;5883;48.818;9.114;2022-08-07T01:17:57;3.38;;;1.90;;
11653;SDS011;5883;48.818;9.114;2022-08-07T01:20:25;5.50;;;2.22;;
11653;SDS011;5883;48.818;9.114;2022-08-07T01:22:57;3.22;;;2.35;;
11653;SDS011;5883;48.818;9.114;2022-08-07T01:25:23;2.10;;;1.60;;
11653;SDS011;5883;48.818;9.114;2022-08-07T01:27:50;2.50;;;1.95;;
11653;SDS011;5883;48.818;9.114;2022-08-07T01:30:17;1.98;;;1.42;;
11653;SDS011;5883;48.818;9.114;2022-08-07T01:32:44;3.20;;;2.08;;
11653;SDS011;5883;48.818;9.114;2022-08-07T01:35:10;3.20;;;1.70;;
11653;SDS011;5883;48.818;9.114;2022-08-07T01:37:37;2.75;;;1.75;;
11653;SDS011;5883;48.818;9.114;2022-08-07T01:40:05;4.80;;;2.15;;
11653;SDS011;5883;48.818;9.114;2022-08-07T01:42:32;1.77;;;1.50;;
11653;SDS011;5883;48.818;9.114;2022-08-07T01:44:59;3.58;;;1.77;;
11653;SDS011;5883;48.818;9.114;2022-08-07T01:47:26;4.13;;;1.45;;
11653;SDS011;5883;48.818;9.114;2022-08-07T01:49:52;4.22;;;1.48;;
11653;SDS011;5883;48.818;9.114;2022-08-07T01:52:19;2.05;;;1.50;;
11653;SDS011;5883;48.818;9.114;2022-08-07T01:54:46;1.52;;;1.38;;
11653;SDS011;5883;48.818;9.114;2022-08-07T01:57:20;2.40;;;1.70;;
11653;SDS011;5883;48.818;9.114;2022-08-07T01:59:49;2.25;;;1.70;;
11653;SDS011;5883;48.818;9.114;2022-08-07T02:02:18;3.50;;;1.83;;
11653;SDS011;5883;48.818;9.114;2022-08-07T02:04:46;2.45;;;1.83;;
11653;SDS011;5883;48.818;9.114;2022-08-07T02:07:14;3.05;;;1.50;;
11653;SDS011;5883;48.818;9.114;2022-08-07T02:09:42;2.30;;;1.38;;
11653;SDS011;5883;48.818;9.114;2022-08-07T02:12:10;1.85;;;1.25;;
11653;SDS011;5883;48.818;9.114;2022-08-07T02:14:47;1.17;;;1.08;;
11653;SDS011;5883;48.818;9.114;2022-08-07T02:17:15;2.60;;;1.30;;
11653;SDS011;5883;48.818;9.114;2022-08-07T02:19:42;2.05;;;1.33;;
11653;SDS011;5883;48.818;9.114;2022-08-07T02:22:10;3.67;;;1.50;;
11653;SDS011;5883;48.818;9.114;2022-08-07T02:24:36;2.38;;;1.55;;
11653;SDS011;5883;48.818;9.114;2022-08-07T02:27:03;3.30;;;1.50;;
11653;SDS011;5883;48.818;9.114;2022-08-07T02:29:31;2.15;;;1.50;;
11653;SDS011;5883;48.818;9.114;2022-08-07T02:31:59;2.50;;;1.50;;
11653;SDS011;5883;48.818;9.114;2022-08-07T02:34:26;2.08;;;1.20;;
11653;SDS011;5883;48.818;9.114;2022-08-07T02:36:53;2.13;;;1.15;;
11653;SDS011;5883;48.818;9.114;2022-08-07T02:39:22;3.15;;;1.67;;
11653;SDS011;5883;48.818;9.114;2022-08-07T02:41:49;1.40;;;1.30;;
11653;SDS011;5883;48.818;9.114;2022-08-07T02:44:15;1.65;;;1.23;;
11653;SDS011;5883;48.818;9.114;2022-08-07T02:46:42;1.30;;;1.20;;
11653;SDS011;5883;48.818;9.114;2022-08-07T02:49:13;2.13;;;1.15;;
11653;SDS011;5883;48.818;9.114;2022-08-07T02:51:39;1.58;;;1.30;;
11653;SDS011;5883;48.818;9.114;2022-08-07T02:54:06;3.22;;;1.00;;
11653;SDS011;5883;48.818;9.114;2022-08-07T02:56:34;1.35;;;1.23;;
11653;SDS011;5883;48.818;9.114;2022-08-07T02:59:04;5.60;;;1.25;;
11653;SDS011;5883;48.818;9.114;2022-08-07T03:01:32;1.35;;;1.25;;
11653;SDS011;5883;48.818;9.114;2022-08-07T03:03:58;2.33;;;1.38;;
11653;SDS011;5883;48.818;9.114;2022-08-07T03:06:27;2.28;;;1.50;;
11653;SDS011;5883;48.818;9.114;2022-08-07T03:08:54;6.63;;;1.17;;
11653;SDS011;5883;48.818;9.114;2022-08-07T03:11:21;2.03;;;1.50;;
11653;SDS011;5883;48.818;9.114;2022-08-07T03:13:47;1.45;;;1.10;;
11653;SDS011;5883;48.818;9.114;2022-08-07T03:16:14;2.10;;;1.30;;
11653;SDS011;5883;48.818;9.114;2022-08-07T03:18:41;2.35;;;1.30;;
11653;SDS011;5883;48.818;9.114;2022-08-07T03:21:08;1.50;;;1.40;;
11653;SDS011;5883;48.818;9.114;2022-08-07T03:23:36;2.38;;;1.30;;
11653;SDS011;5883;48.818;9.114;2022-08-07T03:26:03;1.40;;;1.30;;
11653;SDS011;5883;48.818;9.114;2022-08-07T03:28:30;1.80;;;1.23;;
11653;SDS011;5883;48.818;9.114;2022-08-07T03:30:59;2.47;;;1.15;;
11653;SDS011;5883;48.818;9.114;2022-08-07T03:33:45;1.65;;;1.00;;
11653;SDS011;5883;48.818;9.114;2022-08-07T03:36:12;1.33;;;1.10;;
11653;SDS011;5883;48.818;9.114;2022-08-07T03:38:41;2.10;;;1.30;;
11653;SDS011;5883;48.818;9.114;2022-08-07T03:41:08;1.60;;;1.10;;
11653;SDS011;5883;48.818;9.114;2022-08-07T03:43:34;2.95;;;1.40;;
11653;SDS011;5883;48.818;9.114;2022-08-07T03:46:02;1.38;;;1.10;;
11653;SDS011;5883;48.818;9.114;2022-08-07T03:48:29;3.97;;;1.30;;
11653;SDS011;5883;48.818;9.114;2022-08-07T03:50:56;1.40;;;1.20;;
11653;SDS011;5883;48.818;9.114;2022-08-07T03:53:23;1.15;;;1.05;;
11653;SDS011;5883;48.818;9.114;2022-08-07T03:55:51;1.48;;;1.20;;
11653;SDS011;5883;48.818;9.114;2022-08-07T03:58:19;2.47;;;1.25;;
11653;SDS011;5883;48.818;9.114;2022-08-07T04:00:46;1.30;;;1.00;;
11653;SDS011;5883;48.818;9.114;2022-08-07T04:03:13;1.52;;;1.05;;
11653;SDS011;5883;48.818;9.114;2022-08-07T04:05:41;2.55;;;1.30;;
11653;SDS011;5883;48.818;9.114;2022-08-07T04:08:08;1.13;;;1.02;;
11653;SDS011;5883;48.818;9.114;2022-08-07T04:10:35;1.70;;;1.10;;
11653;SDS011;5883;48.818;9.114;2022-08-07T04:13:03;1.02;;;0.93;;
11653;SDS011;5883;48.818;9.114;2022-08-07T04:15:31;1.27;;;1.10;;
11653;SDS011;5883;48.818;9.114;2022-08-07T04:17:58;1.65;;;1.15;;
11653;SDS011;5883;48.818;9.114;2022-08-07T04:20:24;2.95;;;1.52;;
11653;SDS011;5883;48.818;9.114;2022-08-07T04:22:51;1.17;;;1.08;;
11653;SDS011;5883;48.818;9.114;2022-08-07T04:25:18;1.55;;;1.02;;
11653;SDS011;5883;48.818;9.114;2022-08-07T04:27:46;1.20;;;1.10;;
11653;SDS011;5883;48.818;9.114;2022-08-07T04:30:14;3.08;;;1.23;;
11653;SDS011;5883;48.818;9.114;2022-08-07T04:32:40;1.20;;;1.10;;
11653;SDS011;5883;48.818;9.114;2022-08-07T04:35:07;1.30;;;1.02;;
11653;SDS011;5883;48.818;9.114;2022-08-07T04:37:34;1.20;;;1.10;;
11653;SDS011;5883;48.818;9.114;2022-08-07T04:40:00;4.05;;;1.10;;
11653;SDS011;5883;48.818;9.114;2022-08-07T04:42:27;0.90;;;0.82;;
11653;SDS011;5883;48.818;9.114;2022-08-07T04:44:56;1.17;;;1.08;;
11653;SDS011;5883;48.818;9.114;2022-08-07T04:47:26;1.25;;;1.10;;
11653;SDS011;5883;48.818;9.114;2022-08-07T04:50:02;1.20;;;1.10;;
11653;SDS011;5883;48.818;9.114;2022-08-07T04:52:33;3.35;;;1.17;;
11653;SDS011;5883;48.818;9.114;2022-08-07T04:55:02;2.58;;;1.30;;
11653;SDS011;5883;48.818;9.114;2022-08-07T04:57:34;1.75;;;1.20;;
11653;SDS011;5883;48.818;9.114;2022-08-07T05:00:03;1.20;;;1.10;;
11653;SDS011;5883;48.818;9.114;2022-08-07T05:02:32;2.50;;;1.10;;
11653;SDS011;5883;48.818;9.114;2022-08-07T05:05:02;3.15;;;1.40;;
11653;SDS011;5883;48.818;9.114;2022-08-07T05:07:31;1.02;;;0.93;;
11653;SDS011;5883;48.818;9.114;2022-08-07T05:10:02;1.95;;;1.20;;
11653;SDS011;5883;48.818;9.114;2022-08-07T05:12:31;1.40;;;1.30;;
11653;SDS011;5883;48.818;9.114;2022-08-07T05:15:02;2.42;;;1.00;;
11653;SDS011;5883;48.818;9.114;2022-08-07T05:17:42;4.32;;;1.05;;
11653;SDS011;5883;48.818;9.114;2022-08-07T05:20:09;1.17;;;1.02;;
11653;SDS011;5883;48.818;9.114;2022-08-07T05:22:36;1.00;;;0.90;;
11653;SDS011;5883;48.818;9.114;2022-08-07T05:25:03;3.00;;;1.15;;
11653;SDS011;5883;48.818;9.114;2022-08-07T05:27:30;2.60;;;1.08;;
11653;SDS011;5883;48.818;9.114;2022-08-07T05:29:57;2.55;;;1.25;;
11653;SDS011;5883;48.818;9.114;2022-08-07T05:32:25;3.22;;;1.17;;
11653;SDS011;5883;48.818;9.114;2022-08-07T05:34:53;2.53;;;1.10;;
11653;SDS011;5883;48.818;9.114;2022-08-07T05:37:21;1.17;;;1.02;;
11653;SDS011;5883;48.818;9.114;2022-08-07T05:39:48;2.20;;;1.10;;
11653;SDS011;5883;48.818;9.114;2022-08-07T05:42:15;3.45;;;1.23;;
11653;SDS011;5883;48.818;9.114;2022-08-07T05:44:41;2.60;;;1.10;;
11653;SDS011;5883;48.818;9.114;2022-08-07T05:47:08;1.13;;;1.00;;
11653;SDS011;5883;48.818;9.114;2022-08-07T05:49:34;1.10;;;1.00;;
11653;SDS011;5883;48.818;9.114;2022-08-07T05:52:03;2.22;;;0.95;;
11653;SDS011;5883;48.818;9.114;2022-08-07T05:54:30;2.80;;;0.95;;
11653;SDS011;5883;48.818;9.114;2022-08-07T05:56:56;1.92;;;1.15;;
11653;SDS011;5883;48.818;9.114;2022-08-07T05:59:23;2.72;;;1.00;;
11653;SDS011;5883;48.818;9.114;2022-08-07T06:01:50;3.35;;;0.77;;
11653;SDS011;5883;48.818;9.114;2022-08-07T06:04:18;0.88;;;0.70;;
11653;SDS011;5883;48.818;9.114;2022-08-07T06:06:45;1.70;;;0.80;;
11653;SDS011;5883;48.818;9.114;2022-08-07T06:09:14;1.10;;;0.65;;
11653;SDS011;5883;48.818;9.114;2022-08-07T06:11:42;1.77;;;0.88;;
11653;SDS011;5883;48.818;9.114;2022-08-07T06:14:09;1.75;;;1.02;;
11653;SDS011;5883;48.818;9.114;2022-08-07T06:16:36;2.13;;;1.00;;
11653;SDS011;5883;48.818;9.114;2022-08-07T06:19:03;1.33;;;1.00;;
11653;SDS011;5883;48.818;9.114;2022-08-07T06:21:31;1.20;;;1.08;;
11653;SDS011;5883;48.818;9.114;2022-08-07T06:23:58;0.98;;;0.88;;
11653;SDS011;5883;48.818;9.114;2022-08-07T06:26:26;1.30;;;0.98;;
11653;SDS011;5883;48.818;9.114;2022-08-07T06:28:53;2.38;;;0.90;;
11653;SDS011;5883;48.818;9.114;2022-08-07T06:31:21;0.95;;;0.80;;
11653;SDS011;5883;48.818;9.114;2022-08-07T06:33:47;1.00;;;0.90;;
11653;SDS011;5883;48.818;9.114;2022-08-07T06:36:14;1.67;;;1.23;;
11653;SDS011;5883;48.818;9.114;2022-08-07T06:38:41;0.75;;;0.75;;
11653;SDS011;5883;48.818;9.114;2022-08-07T06:41:08;2.35;;;1.25;;
11653;SDS011;5883;48.818;9.114;2022-08-07T06:43:37;1.20;;;0.90;;
11653;SDS011;5883;48.818;9.114;2022-08-07T06:46:05;2.25;;;0.90;;
11653;SDS011;5883;48.818;9.114;2022-08-07T06:48:32;1.10;;;1.00;;
11653;SDS011;5883;48.818;9.114;2022-08-07T06:50:59;2.67;;;1.42;;
11653;SDS011;5883;48.818;9.114;2022-08-07T06:53:29;2.17;;;1.02;;
11653;SDS011;5883;48.818;9.114;2022-08-07T06:55:55;2.20;;;1.08;;
11653;SDS011;5883;48.818;9.114;2022-08-07T06:58:22;1.67;;;1.30;;
11653;SDS011;5883;48.818;9.114;2022-08-07T07:00:50;4.30;;;1.40;;
11653;SDS011;5883;48.818;9.114;2022-08-07T07:03:17;3.25;;;1.30;;
11653;SDS011;5883;48.818;9.114;2022-08-07T07:05:44;1.60;;;1.20;;
11653;SDS011;5883;48.818;9.114;2022-08-07T07:08:10;1.05;;;0.90;;
11653;SDS011;5883;48.818;9.114;2022-08-07T07:10:37;2.08;;;1.50;;
11653;SDS011;5883;48.818;9.114;2022-08-07T07:13:06;1.80;;;1.33;;
11653;SDS011;5883;48.818;9.114;2022-08-07T07:15:35;3.17;;;1.38;;
11653;SDS011;5883;48.818;9.114;2022-08-07T07:18:04;1.40;;;1.20;;
11653;SDS011;5883;48.818;9.114;2022-08-07T07:20:33;5.22;;;1.50;;
11653;SDS011;5883;48.818;9.114;2022-08-07T07:23:01;3.78;;;1.40;;
11653;SDS011;5883;48.818;9.114;2022-08-07T07:25:28;1.40;;;1.25;;
11653;SDS011;5883;48.818;9.114;2022-08-07T07:27:56;1.40;;;1.30;;
11653;SDS011;5883;48.818;9.114;2022-08-07T07:30:24;2.95;;;1.20;;
11653;SDS011;5883;48.818;9.114;2022-08-07T07:32:52;3.45;;;1.25;;
11653;SDS011;5883;48.818;9.114;2022-08-07T07:35:21;2.28;;;1.35;;
11653;SDS011;5883;48.818;9.114;2022-08-07T07:37:48;1.98;;;1.13;;
11653;SDS011;5883;48.818;9.114;2022-08-07T07:40:17;1.60;;;1.27;;
11653;SDS011;5883;48.818;9.114;2022-08-07T07:42:45;1.48;;;1.35;;
11653;SDS011;5883;48.818;9.114;2022-08-07T07:45:12;3.00;;;1.13;;
11653;SDS011;5883;48.818;9.114;2022-08-07T07:47:40;1.33;;;1.17;;
11653;SDS011;5883;48.818;9.114;2022-08-07T07:50:08;1.42;;;1.00;;
11653;SDS011;5883;48.818;9.114;2022-08-07T07:52:37;1.38;;;0.90;;
11653;SDS011;5883;48.818;9.114;2022-08-07T07:55:05;1.20;;;1.08;;
11653;SDS011;5883;48.818;9.114;2022-08-07T07:57:32;0.73;;;0.70;;
11653;SDS011;5883;48.818;9.114;2022-08-07T07:59:59;1.00;;;0.90;;
11653;SDS011;5883;48.818;9.114;2022-08-07T08:02:26;1.05;;;0.90;;
11653;SDS011;5883;48.818;9.114;2022-08-07T08:04:54;1.13;;;0.80;;
11653;SDS011;5883;48.818;9.114;2022-08-07T08:07:21;1.35;;;0.90;;
11653;SDS011;5883;48.818;9.114;2022-08-07T08:09:49;1.13;;;0.80;;
11653;SDS011;5883;48.818;9.114;2022-08-07T08:12:17;3.08;;;0.82;;
11653;SDS011;5883;48.818;9.114;2022-08-07T08:14:43;1.20;;;0.95;;
11653;SDS011;5883;48.818;9.114;2022-08-07T08:17:11;2.03;;;0.80;;
11653;SDS011;5883;48.818;9.114;2022-08-07T08:19:38;0.80;;;0.60;;
11653;SDS011;5883;48.818;9.114;2022-08-07T08:22:05;0.75;;;0.70;;
11653;SDS011;5883;48.818;9.114;2022-08-07T08:24:51;0.88;;;0.85;;
11653;SDS011;5883;48.818;9.114;2022-08-07T08:27:44;4.97;;;0.77;;
11653;SDS011;5883;48.818;9.114;2022-08-07T08:30:12;0.52;;;0.52;;
11653;SDS011;5883;48.818;9.114;2022-08-07T08:32:39;1.88;;;0.77;;
11653;SDS011;5883;48.818;9.114;2022-08-07T08:35:07;0.77;;;0.77;;
11653;SDS011;5883;48.818;9.114;2022-08-07T08:37:35;1.08;;;0.85;;
11653;SDS011;5883;48.818;9.114;2022-08-07T08:40:04;1.60;;;0.80;;
11653;SDS011;5883;48.818;9.114;2022-08-07T08:42:35;1.23;;;0.88;;
11653;SDS011;5883;48.818;9.114;2022-08-07T08:45:04;0.80;;;0.60;;
11653;SDS011;5883;48.818;9.114;2022-08-07T08:47:35;0.65;;;0.60;;
11653;SDS011;5883;48.818;9.114;2022-08-07T08:50:06;2.13;;;0.80;;
11653;SDS011;5883;48.818;9.114;2022-08-07T08:52:38;0.98;;;0.77;;
11653;SDS011;5883;48.818;9.114;2022-08-07T08:55:16;1.50;;;0.73;;
11653;SDS011;5883;48.818;9.114;2022-08-07T08:57:47;3.33;;;0.60;;
11653;SDS011;5883;48.818;9.114;2022-08-07T09:00:16;1.15;;;0.70;;
11653;SDS011;5883;48.818;9.114;2022-08-07T09:02:46;1.45;;;0.70;;
11653;SDS011;5883;48.818;9.114;2022-08-07T09:05:25;1.25;;;0.90;;
11653;SDS011;5883;48.818;9.114;2022-08-07T09:07:56;1.05;;;0.60;;
11653;SDS011;5883;48.818;9.114;2022-08-07T09:10:27;0.50;;;0.50;;
11653;SDS011;5883;48.818;9.114;2022-08-07T09:12:55;0.65;;;0.65;;
11653;SDS011;5883;48.818;9.114;2022-08-07T09:15:27;0.65;;;0.60;;
11653;SDS011;5883;48.818;9.114;2022-08-07T09:18:01;1.15;;;0.75;;
11653;SDS011;5883;48.818;9.114;2022-08-07T09:20:31;0.80;;;0.40;;
11653;SDS011;5883;48.818;9.114;2022-08-07T09:23:05;0.60;;;0.60;;
11653;SDS011;5883;48.818;9.114;2022-08-07T09:25:36;2.00;;;0.77;;
11653;SDS011;5883;48.818;9.114;2022-08-07T09:28:05;0.80;;;0.70;;
11653;SDS011;5883;48.818;9.114;2022-08-07T09:30:45;4.72;;;0.70;;
11653;SDS011;5883;48.818;9.114;2022-08-07T09:33:23;2.08;;;0.70;;
11653;SDS011;5883;48.818;9.114;2022-08-07T09:35:54;1.52;;;0.70;;
11653;SDS011;5883;48.818;9.114;2022-08-07T09:38:24;0.88;;;0.60;;
11653;SDS011;5883;48.818;9.114;2022-08-07T09:41:01;1.70;;;1.00;;
11653;SDS011;5883;48.818;9.114;2022-08-07T09:43:32;1.33;;;0.65;;
11653;SDS011;5883;48.818;9.114;2022-08-07T09:46:04;1.55;;;0.60;;
11653;SDS011;5883;48.818;9.114;2022-08-07T09:48:33;1.08;;;0.63;;
11653;SDS011;5883;48.818;9.114;2022-08-07T09:51:07;0.60;;;0.60;;
11653;SDS011;5883;48.818;9.114;2022-08-07T09:53:37;0.68;;;0.65;;
11653;SDS011;5883;48.818;9.114;2022-08-07T09:56:14;0.45;;;0.45;;
11653;SDS011;5883;48.818;9.114;2022-08-07T09:58:49;0.60;;;0.50;;
11653;SDS011;5883;48.818;9.114;2022-08-07T10:01:25;0.63;;;0.63;;
11653;SDS011;5883;48.818;9.114;2022-08-07T10:04:05;1.02;;;0.60;;
11653;SDS011;5883;48.818;9.114;2022-08-07T10:06:43;1.52;;;0.80;;
11653;SDS011;5883;48.818;9.114;2022-08-07T10:09:21;2.60;;;0.70;;
11653;SDS011;5883;48.818;9.114;2022-08-07T10:11:58;0.63;;;0.50;;
11653;SDS011;5883;48.818;9.114;2022-08-07T10:17:24;1.15;;;0.55;;
11653;SDS011;5883;48.818;9.114;2022-08-07T10:20:03;1.25;;;0.80;;
11653;SDS011;5883;48.818;9.114;2022-08-07T10:22:37;0.98;;;0.50;;
11653;SDS011;5883;48.818;9.114;2022-08-07T10:25:15;0.88;;;0.60;;
11653;SDS011;5883;48.818;9.114;2022-08-07T10:27:56;0.75;;;0.73;;
11653;SDS011;5883;48.818;9.114;2022-08-07T10:30:30;6.40;;;0.98;;
11653;SDS011;5883;48.818;9.114;2022-08-07T10:33:06;1.23;;;0.90;;
11653;SDS011;5883;48.818;9.114;2022-08-07T10:35:41;0.88;;;0.52;;
11653;SDS011;5883;48.818;9.114;2022-08-07T10:38:13;1.13;;;0.77;;
11653;SDS011;5883;48.818;9.114;2022-08-07T10:40:46;0.60;;;0.52;;
11653;SDS011;5883;48.818;9.114;2022-08-07T10:43:16;1.25;;;0.73;;
11653;SDS011;5883;48.818;9.114;2022-08-07T10:45:46;0.88;;;0.60;;
11653;SDS011;5883;48.818;9.114;2022-08-07T10:48:15;0.63;;;0.50;;
11653;SDS011;5883;48.818;9.114;2022-08-07T10:50:44;0.93;;;0.60;;
11653;SDS011;5883;48.818;9.114;2022-08-07T10:53:14;1.00;;;0.70;;
11653;SDS011;5883;48.818;9.114;2022-08-07T10:55:44;0.65;;;0.65;;
11653;SDS011;5883;48.818;9.114;2022-08-07T10:58:22;0.70;;;0.70;;
11653;SDS011;5883;48.818;9.114;2022-08-07T11:00:52;0.90;;;0.73;;
11653;SDS011;5883;48.818;9.114;2022-08-07T11:03:22;0.50;;;0.50;;
11653;SDS011;5883;48.818;9.114;2022-08-07T11:05:53;0.90;;;0.70;;
11653;SDS011;5883;48.818;9.114;2022-08-07T11:08:24;0.85;;;0.80;;
11653;SDS011;5883;48.818;9.114;2022-08-07T11:10:56;0.65;;;0.63;;
11653;SDS011;5883;48.818;9.114;2022-08-07T11:13:28;0.57;;;0.55;;
11653;SDS011;5883;48.818;9.114;2022-08-07T11:15:56;1.13;;;0.60;;
11653;SDS011;5883;48.818;9.114;2022-08-07T11:18:33;1.42;;;0.90;;
11653;SDS011;5883;48.818;9.114;2022-08-07T11:21:01;0.93;;;0.75;;
11653;SDS011;5883;48.818;9.114;2022-08-07T11:23:31;0.73;;;0.65;;
11653;SDS011;5883;48.818;9.114;2022-08-07T11:26:00;0.95;;;0.68;;
11653;SDS011;5883;48.818;9.114;2022-08-07T11:28:33;3.55;;;0.88;;
11653;SDS011;5883;48.818;9.114;2022-08-07T11:31:01;1.17;;;0.75;;
11653;SDS011;5883;48.818;9.114;2022-08-07T11:33:33;0.90;;;0.80;;
11653;SDS011;5883;48.818;9.114;2022-08-07T11:36:07;2.58;;;0.70;;
11653;SDS011;5883;48.818;9.114;2022-08-07T11:38:39;2.25;;;0.80;;
11653;SDS011;5883;48.818;9.114;2022-08-07T11:41:10;1.80;;;0.80;;
11653;SDS011;5883;48.818;9.114;2022-08-07T11:43:43;1.58;;;0.60;;
11653;SDS011;5883;48.818;9.114;2022-08-07T11:46:17;1.48;;;0.70;;
11653;SDS011;5883;48.818;9.114;2022-08-07T11:48:56;1.95;;;0.80;;
11653;SDS011;5883;48.818;9.114;2022-08-07T11:51:34;1.63;;;0.70;;
11653;SDS011;5883;48.818;9.114;2022-08-07T11:54:09;3.67;;;0.70;;
11653;SDS011;5883;48.818;9.114;2022-08-07T11:56:42;1.65;;;0.93;;
11653;SDS011;5883;48.818;9.114;2022-08-07T11:59:21;1.30;;;0.70;;
11653;SDS011;5883;48.818;9.114;2022-08-07T12:01:52;4.38;;;0.85;;
11653;SDS011;5883;48.818;9.114;2022-08-07T12:04:30;3.83;;;0.70;;
11653;SDS011;5883;48.818;9.114;2022-08-07T12:06:58;0.80;;;0.80;;
11653;SDS011;5883;48.818;9.114;2022-08-07T12:09:27;0.70;;;0.70;;
11653;SDS011;5883;48.818;9.114;2022-08-07T12:11:57;2.05;;;0.70;;
11653;SDS011;5883;48.818;9.114;2022-08-07T12:14:29;4.88;;;1.15;;
11653;SDS011;5883;48.818;9.114;2022-08-07T12:16:59;2.55;;;0.70;;
11653;SDS011;5883;48.818;9.114;2022-08-07T12:19:30;0.77;;;0.68;;
11653;SDS011;5883;48.818;9.114;2022-08-07T12:22:09;0.80;;;0.80;;
11653;SDS011;5883;48.818;9.114;2022-08-07T12:24:37;1.55;;;0.90;;
11653;SDS011;5883;48.818;9.114;2022-08-07T12:27:07;1.15;;;0.82;;
11653;SDS011;5883;48.818;9.114;2022-08-07T12:29:37;0.88;;;0.70;;
11653;SDS011;5883;48.818;9.114;2022-08-07T12:32:08;0.70;;;0.60;;
11653;SDS011;5883;48.818;9.114;2022-08-07T12:34:38;1.55;;;0.80;;
11653;SDS011;5883;48.818;9.114;2022-08-07T12:37:05;0.60;;;0.60;;
11653;SDS011;5883;48.818;9.114;2022-08-07T12:39:32;1.75;;;0.50;;
11653;SDS011;5883;48.818;9.114;2022-08-07T12:42:00;0.80;;;0.60;;
11653;SDS011;5883;48.818;9.114;2022-08-07T12:44:28;0.70;;;0.60;;
11653;SDS011;5883;48.818;9.114;2022-08-07T12:46:58;1.80;;;0.80;;
11653;SDS011;5883;48.818;9.114;2022-08-07T12:49:32;0.88;;;0.63;;
11653;SDS011;5883;48.818;9.114;2022-08-07T12:52:01;1.00;;;0.60;;
11653;SDS011;5883;48.818;9.114;2022-08-07T12:54:30;1.98;;;0.70;;
11653;SDS011;5883;48.818;9.114;2022-08-07T12:56:58;2.22;;;0.77;;
11653;SDS011;5883;48.818;9.114;2022-08-07T12:59:26;1.20;;;0.90;;
11653;SDS011;5883;48.818;9.114;2022-08-07T13:01:55;0.70;;;0.57;;
11653;SDS011;5883;48.818;9.114;2022-08-07T13:04:28;1.30;;;0.98;;
11653;SDS011;5883;48.818;9.114;2022-08-07T13:07:04;0.90;;;0.80;;
11653;SDS011;5883;48.818;9.114;2022-08-07T13:12:13;2.80;;;0.85;;
11653;SDS011;5883;48.818;9.114;2022-08-07T13:14:45;1.15;;;0.70;;
11653;SDS011;5883;48.818;9.114;2022-08-07T13:17:18;0.70;;;0.70;;
11653;SDS011;5883;48.818;9.114;2022-08-07T13:19:49;2.35;;;0.73;;
11653;SDS011;5883;48.818;9.114;2022-08-07T13:22:18;1.15;;;1.00;;
11653;SDS011;5883;48.818;9.114;2022-08-07T13:24:52;1.15;;;0.70;;
11653;SDS011;5883;48.818;9.114;2022-08-07T13:27:24;0.88;;;0.68;;
11653;SDS011;5883;48.818;9.114;2022-08-07T13:29:57;0.57;;;0.57;;
11653;SDS011;5883;48.818;9.114;2022-08-07T13:32:26;2.63;;;0.60;;
11653;SDS011;5883;48.818;9.114;2022-08-07T13:34:57;0.93;;;0.60;;
11653;SDS011;5883;48.818;9.114;2022-08-07T13:37:27;1.05;;;0.85;;
11653;SDS011;5883;48.818;9.114;2022-08-07T13:39:58;1.00;;;0.70;;
11653;SDS011;5883;48.818;9.114;2022-08-07T13:42:27;0.77;;;0.60;;
11653;SDS011;5883;48.818;9.114;2022-08-07T13:44:55;0.75;;;0.73;;
11653;SDS011;5883;48.818;9.114;2022-08-07T13:47:25;1.10;;;1.00;;
11653;SDS011;5883;48.818;9.114;2022-08-07T13:49:51;0.90;;;0.70;;
11653;SDS011;5883;48.818;9.114;2022-08-07T13:52:20;1.45;;;0.63;;
11653;SDS011;5883;48.818;9.114;2022-08-07T13:54:47;0.93;;;0.70;;
11653;SDS011;5883;48.818;9.114;2022-08-07T13:57:13;1.10;;;0.70;;
11653;SDS011;5883;48.818;9.114;2022-08-07T13:59:41;0.70;;;0.70;;
11653;SDS011;5883;48.818;9.114;2022-08-07T14:02:09;1.23;;;0.82;;
11653;SDS011;5883;48.818;9.114;2022-08-07T14:04:43;1.02;;;0.73;;
11653;SDS011;5883;48.818;9.114;2022-08-07T14:07:10;1.05;;;0.77;;
11653;SDS011;5883;48.818;9.114;2022-08-07T14:09:39;1.35;;;0.80;;
11653;SDS011;5883;48.818;9.114;2022-08-07T14:12:08;0.80;;;0.80;;
11653;SDS011;5883;48.818;9.114;2022-08-07T14:14:38;1.00;;;0.70;;
11653;SDS011;5883;48.818;9.114;2022-08-07T14:17:05;1.30;;;0.95;;
11653;SDS011;5883;48.818;9.114;2022-08-07T14:19:34;2.05;;;0.73;;
11653;SDS011;5883;48.818;9.114;2022-08-07T14:22:01;0.98;;;0.70;;
11653;SDS011;5883;48.818;9.114;2022-08-07T14:24:31;1.08;;;0.90;;
11653;SDS011;5883;48.818;9.114;2022-08-07T14:27:01;0.75;;;0.70;;
11653;SDS011;5883;48.818;9.114;2022-08-07T14:29:29;0.50;;;0.50;;
11653;SDS011;5883;48.818;9.114;2022-08-07T14:31:59;3.15;;;0.93;;
11653;SDS011;5883;48.818;9.114;2022-08-07T14:34:27;0.88;;;0.88;;
11653;SDS011;5883;48.818;9.114;2022-08-07T14:36:53;0.90;;;0.60;;
11653;SDS011;5883;48.818;9.114;2022-08-07T14:39:20;1.65;;;0.85;;
11653;SDS011;5883;48.818;9.114;2022-08-07T14:41:48;1.05;;;0.70;;
11653;SDS011;5883;48.818;9.114;2022-08-07T14:44:16;1.27;;;0.88;;
11653;SDS011;5883;48.818;9.114;2022-08-07T14:46:44;1.17;;;0.90;;
11653;SDS011;5883;48.818;9.114;2022-08-07T14:49:11;0.90;;;0.80;;
11653;SDS011;5883;48.818;9.114;2022-08-07T14:51:40;1.00;;;0.82;;
11653;SDS011;5883;48.818;9.114;2022-08-07T14:54:07;0.70;;;0.70;;
11653;SDS011;5883;48.818;9.114;2022-08-07T14:56:38;2.35;;;0.70;;
11653;SDS011;5883;48.818;9.114;2022-08-07T14:59:05;2.08;;;0.82;;
11653;SDS011;5883;48.818;9.114;2022-08-07T15:01:35;0.98;;;0.80;;
11653;SDS011;5883;48.818;9.114;2022-08-07T15:04:03;0.80;;;0.80;;
11653;SDS011;5883;48.818;9.114;2022-08-07T15:06:30;0.85;;;0.80;;
11653;SDS011;5883;48.818;9.114;2022-08-07T15:09:00;0.77;;;0.70;;
11653;SDS011;5883;48.818;9.114;2022-08-07T15:11:29;0.68;;;0.68;;
11653;SDS011;5883;48.818;9.114;2022-08-07T15:13:58;0.90;;;0.70;;
11653;SDS011;5883;48.818;9.114;2022-08-07T15:16:27;0.93;;;0.80;;
11653;SDS011;5883;48.818;9.114;2022-08-07T15:19:00;1.67;;;1.13;;